createdAt,value
2023-04-12T00:01:16.964Z,11.70
2023-04-12T00:03:50.501Z,11.60
2023-04-12T00:06:19.000Z,11.60
2023-04-12T00:08:47.164Z,11.60
2023-04-12T00:11:14.957Z,11.60
2023-04-12T00:13:42.771Z,11.60
2023-04-12T00:16:15.230Z,11.60
2023-04-12T00:18:45.798Z,11.60
2023-04-12T00:21:13.702Z,11.60
2023-04-12T00:23:41.511Z,11.60
2023-04-12T00:26:09.328Z,11.60
2023-04-12T00:28:37.283Z,11.50
2023-04-12T00:31:05.594Z,11.50
2023-04-12T00:33:35.470Z,11.40
2023-04-12T00:36:03.330Z,11.40
2023-04-12T00:38:31.284Z,11.30
2023-04-12T00:40:59.100Z,11.30
2023-04-12T00:43:27.764Z,11.10
2023-04-12T00:45:57.933Z,11.00
2023-04-12T00:48:26.341Z,11.10
2023-04-12T00:50:57.633Z,11.00
2023-04-12T00:53:25.520Z,10.80
2023-04-12T00:55:53.620Z,10.60
2023-04-12T00:58:24.906Z,10.50
2023-04-12T01:00:54.844Z,10.30
2023-04-12T01:03:23.921Z,10.10
2023-04-12T01:06:05.372Z,10.10
2023-04-12T01:08:45.297Z,9.90
2023-04-12T01:11:20.298Z,9.80
2023-04-12T01:13:56.771Z,9.60
2023-04-12T01:16:32.972Z,9.70
2023-04-12T01:19:05.834Z,9.70
2023-04-12T01:21:43.804Z,9.60
2023-04-12T01:24:24.594Z,9.50
2023-04-12T01:26:53.047Z,9.40
2023-04-12T01:29:25.739Z,9.20
2023-04-12T01:31:57.833Z,9.20
2023-04-12T01:34:29.763Z,9.10
2023-04-12T01:36:59.864Z,8.90
2023-04-12T01:39:28.039Z,9.20
2023-04-12T01:41:55.857Z,9.30
2023-04-12T01:44:25.035Z,9.10
2023-04-12T01:46:53.735Z,9.00
2023-04-12T01:49:24.366Z,8.90
2023-04-12T01:51:59.277Z,9.10
2023-04-12T01:54:30.490Z,9.20
2023-04-12T01:57:01.824Z,9.10
2023-04-12T01:59:35.708Z,9.20
2023-04-12T02:02:04.310Z,9.20
2023-04-12T02:04:33.282Z,9.00
2023-04-12T02:07:03.028Z,9.10
2023-04-12T02:09:31.183Z,9.20
2023-04-12T02:11:59.030Z,9.20
2023-04-12T02:14:27.034Z,9.10
2023-04-12T02:16:58.151Z,9.00
2023-04-12T02:19:26.119Z,8.90
2023-04-12T02:21:54.122Z,8.90
2023-04-12T02:24:22.118Z,8.90
2023-04-12T02:26:50.665Z,8.80
2023-04-12T02:29:19.002Z,8.90
2023-04-12T02:31:46.854Z,9.00
2023-04-12T02:34:16.025Z,8.80
2023-04-12T02:36:47.902Z,8.90
2023-04-12T02:39:18.748Z,8.90
2023-04-12T02:41:46.858Z,9.00
2023-04-12T02:44:14.820Z,9.00
2023-04-12T02:46:42.619Z,8.90
2023-04-12T02:49:10.532Z,9.00
2023-04-12T02:51:39.924Z,8.70
2023-04-12T02:54:07.758Z,8.60
2023-04-12T02:56:36.882Z,8.60
2023-04-12T02:59:04.779Z,8.60
2023-04-12T03:01:33.646Z,8.80
2023-04-12T03:04:02.862Z,8.80
2023-04-12T03:06:32.147Z,8.70
2023-04-12T03:09:01.514Z,8.70
2023-04-12T03:11:29.315Z,8.60
2023-04-12T03:13:57.268Z,8.50
2023-04-12T03:16:29.831Z,8.40
2023-04-12T03:18:57.708Z,8.40
2023-04-12T03:21:25.933Z,8.30
2023-04-12T03:23:53.745Z,8.30
2023-04-12T03:26:23.040Z,8.30
2023-04-12T03:28:50.897Z,8.20
2023-04-12T03:31:20.903Z,8.10
2023-04-12T03:33:49.026Z,8.10
2023-04-12T03:36:16.886Z,8.00
2023-04-12T03:38:45.261Z,8.10
2023-04-12T03:41:13.175Z,8.20
2023-04-12T03:43:42.600Z,8.20
2023-04-12T03:46:10.719Z,8.10
2023-04-12T03:48:38.801Z,8.00
2023-04-12T03:51:08.675Z,8.00
2023-04-12T03:53:36.966Z,7.90
2023-04-12T03:56:05.161Z,7.80
2023-04-12T03:58:33.783Z,7.80
2023-04-12T04:01:05.923Z,7.80
2023-04-12T04:03:35.092Z,7.90
2023-04-12T04:06:04.095Z,7.80
2023-04-12T04:08:33.019Z,7.80
2023-04-12T04:11:01.382Z,7.80
2023-04-12T04:13:29.213Z,7.80
2023-04-12T04:16:04.283Z,7.80
2023-04-12T04:18:32.571Z,7.80
2023-04-12T04:21:00.382Z,7.70
2023-04-12T04:23:29.104Z,7.70
2023-04-12T04:25:57.406Z,7.80
2023-04-12T04:28:25.243Z,7.90
2023-04-12T04:30:55.686Z,7.90
2023-04-12T04:33:24.903Z,7.80
2023-04-12T04:35:52.832Z,8.00
2023-04-12T04:38:25.570Z,8.10
2023-04-12T04:40:54.131Z,8.10
2023-04-12T04:43:22.229Z,8.00
2023-04-12T04:45:54.522Z,8.00
2023-04-12T04:48:23.982Z,8.00
2023-04-12T04:50:52.970Z,7.90
2023-04-12T04:53:22.701Z,8.00
2023-04-12T04:55:50.496Z,7.90
2023-04-12T04:58:18.290Z,7.80
2023-04-12T05:00:46.140Z,7.80
2023-04-12T05:03:14.274Z,7.80
2023-04-12T05:05:43.446Z,8.00
2023-04-12T05:08:11.277Z,7.90
2023-04-12T05:10:39.059Z,7.90
2023-04-12T05:13:07.001Z,8.00
2023-04-12T05:15:35.096Z,8.00
2023-04-12T05:18:05.877Z,7.90
2023-04-12T05:20:33.725Z,7.90
2023-04-12T05:23:03.081Z,7.90
2023-04-12T05:25:31.007Z,7.90
2023-04-12T05:27:58.818Z,8.00
2023-04-12T05:30:26.785Z,8.10
2023-04-12T05:32:54.618Z,8.00
2023-04-12T05:35:22.540Z,8.20
2023-04-12T05:37:50.482Z,8.10
2023-04-12T05:40:20.058Z,8.00
2023-04-12T05:42:47.869Z,8.00
2023-04-12T05:45:15.735Z,8.00
2023-04-12T05:47:43.574Z,8.00
2023-04-12T05:50:12.314Z,7.90
2023-04-12T05:52:40.639Z,7.90
2023-04-12T05:55:09.172Z,7.90
2023-04-12T05:57:38.319Z,8.00
2023-04-12T06:00:13.200Z,8.00
2023-04-12T06:02:41.754Z,8.00
2023-04-12T06:05:10.274Z,8.00
2023-04-12T06:07:39.310Z,8.00
2023-04-12T06:10:08.799Z,8.20
2023-04-12T06:12:38.018Z,8.20
2023-04-12T06:15:07.386Z,8.10
2023-04-12T06:17:35.414Z,8.10
2023-04-12T06:20:04.990Z,8.10
2023-04-12T06:22:33.368Z,8.20
2023-04-12T06:25:01.210Z,8.20
2023-04-12T06:27:29.003Z,8.30
2023-04-12T06:29:58.213Z,8.30
2023-04-12T06:32:26.232Z,8.20
2023-04-12T06:34:54.195Z,8.30
2023-04-12T06:37:22.517Z,8.20
2023-04-12T06:39:50.364Z,8.10
2023-04-12T06:42:18.568Z,8.20
2023-04-12T06:44:46.421Z,8.10
2023-04-12T06:47:15.964Z,8.10
2023-04-12T06:49:43.862Z,8.00
2023-04-12T06:52:11.678Z,8.00
2023-04-12T06:54:40.451Z,8.00
2023-04-12T06:57:11.251Z,8.00
2023-04-12T06:59:39.072Z,8.10
2023-04-12T07:02:07.695Z,8.00
2023-04-12T07:04:37.384Z,8.00
2023-04-12T07:07:05.589Z,8.00
2023-04-12T07:09:33.526Z,8.00
2023-04-12T07:12:02.281Z,8.10
2023-04-12T07:14:30.203Z,8.10
2023-04-12T07:16:58.021Z,8.10
2023-04-12T07:19:26.132Z,8.10
2023-04-12T07:21:55.271Z,8.10
2023-04-12T07:24:23.095Z,8.10
2023-04-12T07:26:50.965Z,8.10
2023-04-12T07:29:18.758Z,8.10
2023-04-12T07:31:46.698Z,8.10
2023-04-12T07:34:14.625Z,8.10
2023-04-12T07:36:43.910Z,8.10
2023-04-12T07:39:13.219Z,8.20
2023-04-12T07:41:42.264Z,8.10
2023-04-12T07:44:10.072Z,8.20
2023-04-12T07:46:37.882Z,8.30
2023-04-12T07:49:05.812Z,8.30
2023-04-12T07:51:33.843Z,8.30
2023-04-12T07:54:01.625Z,8.40
2023-04-12T07:56:30.853Z,8.50
2023-04-12T07:58:58.788Z,8.40
2023-04-12T08:01:26.728Z,8.40
2023-04-12T08:03:54.660Z,8.40
2023-04-12T08:06:22.553Z,8.50
2023-04-12T08:08:50.602Z,8.60
2023-04-12T08:11:18.498Z,8.60
2023-04-12T08:13:47.797Z,8.60
2023-04-12T08:16:15.684Z,8.70
2023-04-12T08:18:43.638Z,8.70
2023-04-12T08:21:11.615Z,8.70
2023-04-12T08:23:39.519Z,8.70
2023-04-12T08:26:07.465Z,8.70
2023-04-12T08:28:36.103Z,8.70
2023-04-12T08:31:07.140Z,8.70
2023-04-12T08:33:35.212Z,8.80
2023-04-12T08:36:03.073Z,8.80
2023-04-12T08:38:44.750Z,8.80
2023-04-12T08:41:14.805Z,8.80
2023-04-12T08:43:46.178Z,8.80
2023-04-12T08:46:17.270Z,8.90
2023-04-12T08:48:47.272Z,8.90
2023-04-12T08:51:17.096Z,8.90
2023-04-12T08:53:45.376Z,8.90
2023-04-12T08:56:14.192Z,9.00
2023-04-12T08:58:45.911Z,9.00
2023-04-12T09:01:15.739Z,9.00
2023-04-12T09:03:46.259Z,9.00
2023-04-12T09:06:14.882Z,9.00
2023-04-12T09:08:55.952Z,9.00
2023-04-12T09:11:25.688Z,9.00
2023-04-12T09:13:54.448Z,9.20
2023-04-12T09:16:42.098Z,9.20
2023-04-12T09:19:11.464Z,9.20
2023-04-12T09:21:53.292Z,9.20
2023-04-12T09:24:24.091Z,9.30
2023-04-12T09:27:03.737Z,9.30
2023-04-12T09:29:32.290Z,9.30
2023-04-12T09:32:02.756Z,9.30
2023-04-12T09:34:34.971Z,9.30
2023-04-12T09:37:13.919Z,9.40
2023-04-12T09:39:41.803Z,9.40
2023-04-12T09:42:25.573Z,9.40
2023-04-12T09:44:58.843Z,9.50
2023-04-12T09:47:38.746Z,9.50
2023-04-12T09:50:09.640Z,9.50
2023-04-12T09:52:38.607Z,9.50
2023-04-12T09:55:10.496Z,9.60
2023-04-12T09:57:40.126Z,9.60
2023-04-12T10:00:12.885Z,9.60
2023-04-12T10:02:45.031Z,9.50
2023-04-12T10:05:17.580Z,9.60
2023-04-12T10:07:46.394Z,9.50
2023-04-12T10:10:15.943Z,9.50
2023-04-12T10:12:45.589Z,9.50
2023-04-12T10:15:17.292Z,9.50
2023-04-12T10:17:47.152Z,9.60
2023-04-12T10:20:17.772Z,9.60
2023-04-12T10:22:47.270Z,9.60
2023-04-12T10:25:16.841Z,9.60
2023-04-12T10:27:46.452Z,9.60
2023-04-12T10:30:25.328Z,9.70
2023-04-12T10:33:16.713Z,9.70
2023-04-12T10:35:54.948Z,9.70
2023-04-12T10:38:25.007Z,9.70
2023-04-12T10:41:13.482Z,9.80
2023-04-12T10:43:41.824Z,9.80
2023-04-12T10:46:09.701Z,9.90
2023-04-12T10:48:39.224Z,9.90
2023-04-12T10:51:23.540Z,10.00
2023-04-12T10:53:52.548Z,10.00
2023-04-12T10:56:39.882Z,10.00
2023-04-12T10:59:08.540Z,10.00
2023-04-12T11:01:38.999Z,10.00
2023-04-12T11:04:18.979Z,10.00
2023-04-12T11:06:59.193Z,10.00
2023-04-12T11:09:29.795Z,10.00
2023-04-12T11:11:59.777Z,10.10
2023-04-12T11:14:30.782Z,10.10
2023-04-12T11:17:24.596Z,10.20
2023-04-12T11:19:59.387Z,10.20
2023-04-12T11:22:30.842Z,10.20
2023-04-12T11:25:00.605Z,10.30
2023-04-12T11:27:29.719Z,10.30
2023-04-12T11:29:59.367Z,10.30
2023-04-12T11:32:28.718Z,10.40
2023-04-12T11:34:58.262Z,10.40
2023-04-12T11:37:27.492Z,10.50
2023-04-12T11:39:58.927Z,10.50
2023-04-12T11:42:28.837Z,10.50
2023-04-12T11:45:01.543Z,10.60
2023-04-12T11:47:33.186Z,10.60
2023-04-12T11:50:01.095Z,10.60
2023-04-12T11:52:31.822Z,10.70
2023-04-12T11:55:05.047Z,10.70
2023-04-12T11:57:33.490Z,10.70
2023-04-12T12:00:02.223Z,10.70
2023-04-12T12:02:40.716Z,10.80
2023-04-12T12:05:14.772Z,10.80
2023-04-12T12:07:43.120Z,10.80
2023-04-12T12:10:16.497Z,10.80
2023-04-12T12:12:52.175Z,10.80
2023-04-12T12:15:20.223Z,10.80
2023-04-12T12:17:51.981Z,10.90
2023-04-12T12:20:24.288Z,10.90
2023-04-12T12:22:52.257Z,10.90
2023-04-12T12:25:21.573Z,10.90
2023-04-12T12:27:50.739Z,10.90
2023-04-12T12:30:20.267Z,11.00
2023-04-12T12:32:52.340Z,10.90
2023-04-12T12:35:20.343Z,10.90
2023-04-12T12:37:52.541Z,11.00
2023-04-12T12:40:32.206Z,11.00
2023-04-12T12:43:00.793Z,11.00
2023-04-12T12:45:30.461Z,11.00
2023-04-12T12:48:00.209Z,11.10
2023-04-12T12:50:29.802Z,11.20
2023-04-12T12:52:59.203Z,11.20
2023-04-12T12:55:29.505Z,11.30
2023-04-12T13:00:30.300Z,11.40
2023-04-12T13:02:58.633Z,11.50
2023-04-12T13:05:26.699Z,11.40
2023-04-12T13:07:54.716Z,11.40
2023-04-12T13:10:23.442Z,11.40
2023-04-12T13:12:52.696Z,11.50
2023-04-12T13:15:23.960Z,11.60
2023-04-12T13:17:53.574Z,11.60
2023-04-12T13:20:21.931Z,11.50
2023-04-12T13:22:49.732Z,11.60
2023-04-12T13:25:19.589Z,11.50
2023-04-12T13:27:48.661Z,11.50
2023-04-12T13:30:18.366Z,11.50
2023-04-12T13:32:46.165Z,11.50
2023-04-12T13:35:14.775Z,11.60
2023-04-12T13:37:42.842Z,11.60
2023-04-12T13:40:11.398Z,11.80
2023-04-12T13:42:39.289Z,11.90
2023-04-12T13:45:08.390Z,12.00
2023-04-12T13:47:37.723Z,12.10
2023-04-12T13:50:06.342Z,12.20
2023-04-12T13:52:34.169Z,12.30
2023-04-12T13:55:01.991Z,12.40
2023-04-12T13:57:29.852Z,12.50
2023-04-12T13:59:57.781Z,12.50
2023-04-12T14:02:26.470Z,12.50
2023-04-12T14:04:56.924Z,12.50
2023-04-12T14:07:25.413Z,12.50
2023-04-12T14:09:53.638Z,12.50
2023-04-12T14:12:21.480Z,12.50
2023-04-12T14:14:49.309Z,12.50
2023-04-12T14:17:17.853Z,12.50
2023-04-12T14:19:45.738Z,12.50
2023-04-12T14:22:14.944Z,12.40
2023-04-12T14:24:42.935Z,12.40
2023-04-12T14:27:10.848Z,12.30
2023-04-12T14:29:39.734Z,12.20
2023-04-12T14:32:07.547Z,12.10
2023-04-12T14:34:37.962Z,12.10
2023-04-12T14:37:06.380Z,12.10
2023-04-12T14:39:35.743Z,12.10
2023-04-12T14:42:03.810Z,12.00
2023-04-12T14:44:32.573Z,12.00
2023-04-12T14:47:00.443Z,12.00
2023-04-12T14:49:32.899Z,12.00
2023-04-12T14:52:01.501Z,12.00
2023-04-12T14:54:29.357Z,12.00
2023-04-12T14:56:58.525Z,12.00
2023-04-12T14:59:27.229Z,12.10
2023-04-12T15:01:55.213Z,12.20
2023-04-12T15:04:23.248Z,12.20
2023-04-12T15:06:51.229Z,12.30
2023-04-12T15:09:19.050Z,12.50
2023-04-12T15:11:54.915Z,12.90
2023-04-12T15:14:25.324Z,13.00
2023-04-12T15:16:53.165Z,13.00
2023-04-12T15:19:23.311Z,12.90
2023-04-12T15:21:52.258Z,12.70
2023-04-12T15:24:20.721Z,12.70
2023-04-12T15:26:50.631Z,12.70
2023-04-12T15:29:19.367Z,12.80
2023-04-12T15:31:48.601Z,13.00
2023-04-12T15:34:16.498Z,13.50
2023-04-12T15:36:46.187Z,13.50
2023-04-12T15:39:14.821Z,13.30
2023-04-12T15:41:43.223Z,13.20
2023-04-12T15:44:13.381Z,13.20
2023-04-12T15:46:42.035Z,13.10
2023-04-12T15:49:11.686Z,13.10
2023-04-12T15:51:39.881Z,13.20
2023-04-12T15:54:07.875Z,13.20
2023-04-12T15:56:37.847Z,13.20
2023-04-12T15:59:05.868Z,13.40
2023-04-12T16:01:35.585Z,13.50
2023-04-12T16:04:05.243Z,13.60
2023-04-12T16:06:35.795Z,13.70
2023-04-12T16:09:04.885Z,13.90
2023-04-12T16:11:33.914Z,13.90
2023-04-12T16:14:01.908Z,13.70
2023-04-12T16:16:29.796Z,13.40
2023-04-12T16:18:59.680Z,13.20
2023-04-12T16:21:30.217Z,13.00
2023-04-12T16:23:59.437Z,12.90
2023-04-12T16:26:27.582Z,12.90
2023-04-12T16:28:55.817Z,12.90
2023-04-12T16:31:25.260Z,12.80
2023-04-12T16:33:53.658Z,12.90
2023-04-12T16:36:23.328Z,13.00
2023-04-12T16:38:51.544Z,13.10
2023-04-12T16:41:21.193Z,13.00
2023-04-12T16:43:52.745Z,12.90
2023-04-12T16:46:20.962Z,12.80
2023-04-12T16:48:48.903Z,12.70
2023-04-12T16:51:16.952Z,12.60
2023-04-12T16:53:45.021Z,12.60
2023-04-12T16:56:13.070Z,12.70
2023-04-12T16:58:42.501Z,12.70
2023-04-12T17:01:10.411Z,12.70
2023-04-12T17:03:38.320Z,12.70
2023-04-12T17:06:07.058Z,12.60
2023-04-12T17:08:34.963Z,12.60
2023-04-12T17:11:03.404Z,12.60
2023-04-12T17:13:31.506Z,12.60
2023-04-12T17:16:00.702Z,12.70
2023-04-12T17:18:28.550Z,12.70
2023-04-12T17:20:56.722Z,12.70
2023-04-12T17:23:24.545Z,12.80
2023-04-12T17:25:52.882Z,12.80
2023-04-12T17:28:20.692Z,12.80
2023-04-12T17:30:48.528Z,12.80
2023-04-12T17:33:18.444Z,12.80
2023-04-12T17:35:46.987Z,12.80
2023-04-12T17:38:14.830Z,12.80
2023-04-12T17:40:42.664Z,12.80
2023-04-12T17:43:10.492Z,12.80
2023-04-12T17:45:38.488Z,12.70
2023-04-12T17:48:07.025Z,12.60
2023-04-12T17:50:36.260Z,12.50
2023-04-12T17:53:04.070Z,12.40
2023-04-12T17:55:32.015Z,12.40
2023-04-12T17:57:59.831Z,12.30
2023-04-12T18:00:27.787Z,12.20
2023-04-12T18:02:56.052Z,12.10
2023-04-12T18:05:24.188Z,12.10
2023-04-12T18:07:53.399Z,12.00
2023-04-12T18:10:23.082Z,12.00
2023-04-12T18:12:51.071Z,12.00
2023-04-12T18:15:19.153Z,11.80
2023-04-12T18:17:47.032Z,11.80
2023-04-12T18:20:15.972Z,11.70
2023-04-12T18:22:44.692Z,11.70
2023-04-12T18:25:14.455Z,11.50
2023-04-12T18:27:42.262Z,11.50
2023-04-12T18:30:10.495Z,11.50
2023-04-12T18:32:38.433Z,11.50
2023-04-12T18:35:07.826Z,11.50
2023-04-12T18:37:36.899Z,11.40
2023-04-12T18:40:07.375Z,11.40
2023-04-12T18:42:36.612Z,11.40
2023-04-12T18:45:04.858Z,11.20
2023-04-12T18:47:32.734Z,11.00
2023-04-12T18:50:00.942Z,10.80
2023-04-12T18:52:28.748Z,10.60
2023-04-12T18:54:56.574Z,10.50
2023-04-12T18:57:24.400Z,10.20
2023-04-12T18:59:53.606Z,9.80
2023-04-12T19:02:21.635Z,9.50
2023-04-12T19:04:49.509Z,9.30
2023-04-12T19:07:17.353Z,9.00
2023-04-12T19:09:46.964Z,8.80
2023-04-12T19:12:14.808Z,8.70
2023-04-12T19:14:42.617Z,8.60
2023-04-12T19:17:11.776Z,8.50
2023-04-12T19:19:39.589Z,8.40
2023-04-12T19:22:07.694Z,8.30
2023-04-12T19:24:36.068Z,8.30
2023-04-12T19:27:04.005Z,8.30
2023-04-12T19:29:31.838Z,8.10
2023-04-12T19:32:00.750Z,8.20
2023-04-12T19:34:29.915Z,8.20
2023-04-12T19:36:57.744Z,8.10
2023-04-12T19:39:26.868Z,8.20
2023-04-12T19:41:54.690Z,8.10
2023-04-12T19:44:23.197Z,8.10
2023-04-12T19:46:51.654Z,8.10
2023-04-12T19:49:19.585Z,8.10
2023-04-12T19:51:49.097Z,8.10
2023-04-12T19:54:18.739Z,8.10
2023-04-12T19:56:47.016Z,8.10
2023-04-12T19:59:15.477Z,8.00
2023-04-12T20:01:48.136Z,8.10
2023-04-12T20:04:16.989Z,8.00
2023-04-12T20:06:45.438Z,7.90
2023-04-12T20:09:14.746Z,7.80
2023-04-12T20:11:42.924Z,7.70
2023-04-12T20:14:11.048Z,7.60
2023-04-12T20:16:41.500Z,7.60
2023-04-12T20:19:09.881Z,7.50
2023-04-12T20:21:37.741Z,7.50
2023-04-12T20:24:08.193Z,7.50
2023-04-12T20:26:37.531Z,7.40
2023-04-12T20:29:05.471Z,7.30
2023-04-12T20:31:33.658Z,7.30
2023-04-12T20:34:01.518Z,7.30
2023-04-12T20:36:29.599Z,7.20
2023-04-12T20:38:58.005Z,7.20
2023-04-12T20:41:25.959Z,7.20
2023-04-12T20:43:55.224Z,7.20
2023-04-12T20:46:25.887Z,7.10
2023-04-12T20:48:56.262Z,7.20
2023-04-12T20:51:24.647Z,7.20
2023-04-12T20:53:52.532Z,7.20
2023-04-12T20:56:20.380Z,7.10
2023-04-12T20:58:49.752Z,7.10
2023-04-12T21:01:19.461Z,7.10
2023-04-12T21:03:47.658Z,7.10
2023-04-12T21:06:15.764Z,7.00
2023-04-12T21:08:44.558Z,6.90
2023-04-12T21:11:12.411Z,6.80
2023-04-12T21:13:40.659Z,6.80
2023-04-12T21:16:09.750Z,6.80
2023-04-12T21:18:41.423Z,6.80
2023-04-12T21:21:09.401Z,6.70
2023-04-12T21:23:37.462Z,6.70
2023-04-12T21:26:05.558Z,6.70
2023-04-12T21:28:33.435Z,6.60
2023-04-12T21:31:01.277Z,6.60
2023-04-12T21:33:30.124Z,6.60
2023-04-12T21:36:00.183Z,6.60
2023-04-12T21:38:28.103Z,6.60
2023-04-12T21:40:58.669Z,6.70
2023-04-12T21:43:26.827Z,6.70
2023-04-12T21:45:54.808Z,6.60
2023-04-12T21:48:22.707Z,6.70
2023-04-12T21:50:50.565Z,6.70
2023-04-12T21:53:19.747Z,6.70
2023-04-12T21:55:49.542Z,6.60
2023-04-12T21:58:17.857Z,6.70
2023-04-12T22:00:45.753Z,6.60
2023-04-12T22:03:14.075Z,6.60
2023-04-12T22:05:44.521Z,6.70
2023-04-12T22:08:14.198Z,6.60
2023-04-12T22:10:43.388Z,6.60
2023-04-12T22:13:11.272Z,6.60
2023-04-12T22:15:40.461Z,6.60
2023-04-12T22:18:08.290Z,6.60
2023-04-12T22:20:36.689Z,6.50
2023-04-12T22:23:04.572Z,6.60
2023-04-12T22:25:32.506Z,6.50
2023-04-12T22:28:01.732Z,6.50
2023-04-12T22:30:30.514Z,6.40
2023-04-12T22:32:59.885Z,6.40
2023-04-12T22:35:29.988Z,6.30
2023-04-12T22:37:57.822Z,6.40
2023-04-12T22:40:25.640Z,6.30
2023-04-12T22:42:53.730Z,6.30
2023-04-12T22:45:22.891Z,6.20
2023-04-12T22:47:50.974Z,6.20
2023-04-12T22:50:19.564Z,6.20
2023-04-12T22:52:49.582Z,6.30
2023-04-12T22:55:18.022Z,6.20
2023-04-12T22:57:46.890Z,6.20
2023-04-12T23:00:18.007Z,6.20
2023-04-12T23:02:48.545Z,6.20
2023-04-12T23:05:17.385Z,6.20
2023-04-12T23:07:45.230Z,6.20
2023-04-12T23:10:13.187Z,6.10
2023-04-12T23:12:41.115Z,6.10
2023-04-12T23:15:10.116Z,6.10
2023-04-12T23:17:38.006Z,6.10
2023-04-12T23:20:13.145Z,6.00
2023-04-12T23:22:56.782Z,6.00
2023-04-12T23:25:39.049Z,6.00
2023-04-12T23:28:13.504Z,5.90
2023-04-12T23:30:44.132Z,5.90
2023-04-12T23:33:12.601Z,5.90
2023-04-12T23:35:42.377Z,5.90
2023-04-12T23:38:15.348Z,5.80
2023-04-12T23:40:44.101Z,5.80
2023-04-12T23:43:11.953Z,5.80
2023-04-12T23:45:39.850Z,5.80
2023-04-12T23:48:07.789Z,5.80
2023-04-12T23:50:35.700Z,5.80
2023-04-12T23:53:05.698Z,5.80
2023-04-12T23:55:33.508Z,5.70
2023-04-12T23:58:01.469Z,5.70
